Time;durP1;ratioP1;P1;durP2;ratioP2;P2;SDS_P1;SDS_P2;PMS_P1;PMS_P2;Temp;Humidity;BMP_temperature;BMP_pressure;BME280_temperature;BME280_humidity;BME280_pressure;Samples;Min_cycle;Max_cycle;Signal;HPM_P1;HPM_P2
2023/06/07 00:01:44;;;;;;;5.97;2.75;;;;;;;17.60;64.93;95231.22;5051494;28;20207;-69
2023/06/07 00:04:12;;;;;;;4.72;2.22;;;;;;;17.64;64.73;95234.47;5051830;28;20199;-68
2023/06/07 00:06:40;;;;;;;2.67;2.47;;;;;;;17.50;65.26;95225.00;5051536;28;20205;-67
2023/06/07 00:09:09;;;;;;;4.15;2.95;;;;;;;17.51;65.26;95226.66;5051611;28;20202;-68
2023/06/07 00:11:36;;;;;;;3.50;3.00;;;;;;;17.48;65.49;95221.69;5051113;28;20206;-67
2023/06/07 00:14:02;;;;;;;3.13;2.60;;;;;;;17.47;65.32;95230.31;5051430;28;20226;-68
2023/06/07 00:16:29;;;;;;;3.92;3.17;;;;;;;17.45;65.65;95224.44;5051334;28;20265;-67
2023/06/07 00:18:57;;;;;;;5.72;2.58;;;;;;;17.45;65.65;95221.03;5050865;28;20261;-68
2023/06/07 00:21:24;;;;;;;4.15;2.42;;;;;;;17.36;65.85;95224.94;5044006;28;20199;-69
2023/06/07 00:23:51;;;;;;;3.63;2.50;;;;;;;17.33;66.05;95217.41;5050760;28;20230;-70
2023/06/07 00:26:19;;;;;;;5.22;2.53;;;;;;;17.31;65.97;95224.41;5051103;28;20592;-68
2023/06/07 00:28:46;;;;;;;6.03;2.60;;;;;;;17.30;66.14;95217.63;5050822;28;20207;-69
2023/06/07 00:31:12;;;;;;;7.38;2.95;;;;;;;17.22;66.41;95218.03;5051122;28;20230;-71
2023/06/07 00:33:39;;;;;;;6.50;2.97;;;;;;;17.18;66.54;95208.84;5046750;28;20199;-68
2023/06/07 00:36:06;;;;;;;3.08;2.88;;;;;;;17.16;66.51;95209.84;5044923;28;20229;-68
2023/06/07 00:38:33;;;;;;;2.97;2.78;;;;;;;17.13;66.57;95210.84;5050597;28;20308;-67
2023/06/07 00:40:59;;;;;;;2.22;2.03;;;;;;;17.10;66.69;95215.31;5050627;28;20260;-66
2023/06/07 00:43:27;;;;;;;4.82;2.72;;;;;;;17.12;66.65;95219.47;5050902;28;20264;-66
2023/06/07 00:45:54;;;;;;;3.65;2.70;;;;;;;16.94;66.95;95200.81;5050371;28;20223;-67
2023/06/07 00:48:21;;;;;;;3.55;2.90;;;;;;;16.97;67.12;95210.91;5050479;28;20210;-67
2023/06/07 00:50:48;;;;;;;5.78;3.38;;;;;;;16.89;67.20;95219.94;5050536;28;20219;-71
2023/06/07 00:53:15;;;;;;;5.50;2.78;;;;;;;16.92;67.46;95217.19;5050335;28;20215;-68
2023/06/07 00:55:43;;;;;;;4.55;3.47;;;;;;;16.89;67.20;95222.50;5049571;28;20273;-67
2023/06/07 00:58:10;;;;;;;3.13;2.85;;;;;;;16.95;67.25;95223.00;5050244;28;20227;-67
2023/06/07 01:00:38;;;;;;;3.17;2.97;;;;;;;16.89;67.01;95215.63;5047232;28;20199;-67
2023/06/07 01:03:05;;;;;;;4.00;2.53;;;;;;;16.83;67.39;95226.22;5046256;28;20720;-66
2023/06/07 01:05:32;;;;;;;4.47;2.70;;;;;;;16.82;67.44;95221.22;5048094;28;20290;-69
2023/06/07 01:08:00;;;;;;;3.28;2.90;;;;;;;16.77;67.35;95221.47;5048685;28;20195;-67
2023/06/07 01:10:27;;;;;;;4.03;2.65;;;;;;;16.85;66.33;95215.88;5049569;28;20207;-71
2023/06/07 01:12:55;;;;;;;4.88;3.53;;;;;;;16.86;66.63;95222.66;5048782;28;20768;-70
2023/06/07 01:15:22;;;;;;;3.67;2.72;;;;;;;16.75;66.67;95218.16;5048925;28;20203;-69
2023/06/07 01:17:51;;;;;;;3.40;2.80;;;;;;;16.66;66.78;95214.34;5050057;28;20222;-68
2023/06/07 01:20:22;;;;;;;4.40;3.35;;;;;;;16.63;66.61;95213.63;5049706;28;20593;-68
2023/06/07 01:22:52;;;;;;;6.90;2.72;;;;;;;16.50;66.71;95215.22;5050078;28;20257;-67
2023/06/07 01:25:20;;;;;;;4.65;2.88;;;;;;;16.44;66.84;95220.69;5049999;28;20589;-66
2023/06/07 01:27:50;;;;;;;3.40;3.05;;;;;;;16.31;67.19;95223.94;5049974;28;20249;-70
2023/06/07 01:30:17;;;;;;;3.25;2.90;;;;;;;16.34;67.31;95215.22;5050155;28;20207;-67
2023/06/07 01:32:45;;;;;;;3.50;3.25;;;;;;;16.35;66.96;95216.88;5049922;28;21012;-67
2023/06/07 01:35:12;;;;;;;4.90;2.85;;;;;;;16.27;67.22;95214.72;5049520;28;20249;-70
2023/06/07 01:37:41;;;;;;;2.72;2.53;;;;;;;16.25;66.49;95213.16;5049545;28;20257;-67
2023/06/07 01:40:09;;;;;;;3.10;2.72;;;;;;;16.19;66.47;95216.88;5049913;28;20199;-67
2023/06/07 01:42:39;;;;;;;2.83;2.60;;;;;;;16.18;66.59;95215.22;5050146;28;20202;-68
2023/06/07 01:45:07;;;;;;;4.55;2.80;;;;;;;16.13;66.64;95206.94;5049778;28;20230;-68
2023/06/07 01:47:34;;;;;;;6.10;2.92;;;;;;;16.08;65.84;95210.66;5049811;28;20211;-65
2023/06/07 01:50:01;;;;;;;2.67;2.47;;;;;;;16.02;66.54;95206.69;5048989;28;20234;-69
2023/06/07 01:52:28;;;;;;;4.90;2.22;;;;;;;15.97;66.63;95201.78;5049945;28;20266;-71
2023/06/07 01:54:55;;;;;;;4.38;2.40;;;;;;;15.96;66.49;95201.88;5049412;28;20207;-68
2023/06/07 01:57:30;;;;;;;5.03;2.92;;;;;;;15.98;66.48;95215.44;5049828;28;20245;-66
2023/06/07 02:00:10;;;;;;;4.00;2.45;;;;;;;15.99;66.21;95209.41;5049136;28;20256;-66
2023/06/07 02:02:46;;;;;;;2.70;2.25;;;;;;;16.04;65.92;95206.59;5049842;28;20202;-65
2023/06/07 02:05:17;;;;;;;3.60;2.78;;;;;;;16.05;65.47;95208.25;5037384;28;20256;-67
2023/06/07 02:07:48;;;;;;;2.88;2.67;;;;;;;15.97;65.70;95206.09;5048996;28;20237;-65
2023/06/07 02:10:18;;;;;;;3.50;2.22;;;;;;;16.02;65.62;95204.13;5049371;28;20680;-64
2023/06/07 02:12:46;;;;;;;2.22;2.10;;;;;;;15.95;65.65;95207.91;5049494;28;20234;-67
2023/06/07 02:15:15;;;;;;;4.05;2.38;;;;;;;15.97;66.03;95209.47;5049611;28;20230;-65
2023/06/07 02:17:57;;;;;;;2.67;2.47;;;;;;;15.98;66.06;95210.31;5048564;28;20816;-67
2023/06/07 02:20:25;;;;;;;6.10;2.70;;;;;;;16.00;65.38;95213.63;5042527;28;20207;-66
2023/06/07 02:22:52;;;;;;;3.15;2.55;;;;;;;15.96;65.57;95212.13;5049338;28;20248;-68
2023/06/07 02:25:18;;;;;;;2.75;2.55;;;;;;;15.99;65.71;95209.41;5049007;28;20207;-66
2023/06/07 02:27:45;;;;;;;3.38;2.40;;;;;;;16.10;65.53;95212.22;5048790;28;20191;-67
2023/06/07 02:30:12;;;;;;;2.28;2.17;;;;;;;16.05;65.42;95221.91;5049234;28;20704;-68
2023/06/07 02:32:40;;;;;;;4.05;2.65;;;;;;;16.05;65.55;95214.22;5048886;28;20663;-67
2023/06/07 02:35:08;;;;;;;4.78;3.10;;;;;;;15.97;65.48;95221.47;5049140;28;20206;-66
2023/06/07 02:37:35;;;;;;;3.45;2.97;;;;;;;15.97;65.72;95216.34;5046240;28;20820;-67
2023/06/07 02:40:02;;;;;;;3.03;2.30;;;;;;;16.06;65.50;95222.75;5043450;28;20211;-67
2023/06/07 02:42:30;;;;;;;2.88;2.55;;;;;;;16.02;65.57;95222.06;5049491;28;20291;-68
2023/06/07 02:44:57;;;;;;;3.53;2.58;;;;;;;15.96;65.75;95212.94;5048778;28;20257;-70
2023/06/07 02:47:24;;;;;;;7.70;2.75;;;;;;;15.97;66.03;95218.91;5048993;28;20223;-66
2023/06/07 02:49:52;;;;;;;2.72;2.53;;;;;;;15.99;65.76;95214.53;5048706;28;20203;-69
2023/06/07 02:52:19;;;;;;;5.38;2.80;;;;;;;15.96;66.20;95217.25;5049077;28;20247;-66
2023/06/07 02:54:46;;;;;;;5.45;2.80;;;;;;;15.93;66.23;95219.97;5048781;28;20225;-68
2023/06/07 02:57:13;;;;;;;2.83;2.63;;;;;;;16.05;66.07;95219.34;5048827;28;20315;-65
2023/06/07 02:59:41;;;;;;;4.10;3.10;;;;;;;16.10;65.34;95212.22;5047535;28;20697;-66
2023/06/07 03:02:08;;;;;;;2.83;2.45;;;;;;;15.97;65.70;95199.22;5043504;28;20199;-66
2023/06/07 03:04:37;;;;;;;3.80;2.55;;;;;;;16.04;65.68;95215.13;5047893;28;20686;-67
2023/06/07 03:07:06;;;;;;;4.22;2.53;;;;;;;16.00;65.95;95211.06;5048385;28;20226;-67
2023/06/07 03:09:33;;;;;;;2.90;2.80;;;;;;;15.89;66.31;95203.09;5047460;28;20207;-69
2023/06/07 03:11:59;;;;;;;2.83;2.63;;;;;;;16.01;66.17;95211.88;5048221;28;20199;-66
2023/06/07 03:14:26;;;;;;;5.40;2.50;;;;;;;15.99;65.99;95214.53;5047036;28;20263;-69
2023/06/07 03:16:53;;;;;;;3.00;2.70;;;;;;;15.98;66.31;95215.44;5048343;28;20309;-66
2023/06/07 03:19:20;;;;;;;6.28;4.10;;;;;;;15.98;66.33;95216.25;5051095;28;20207;-68
2023/06/07 03:21:46;;;;;;;3.28;2.50;;;;;;;15.92;66.21;95216.56;5052875;28;20744;-66
2023/06/07 03:24:16;;;;;;;4.00;2.25;;;;;;;15.96;66.21;95214.69;5052890;28;20562;-65
2023/06/07 03:26:43;;;;;;;4.70;3.08;;;;;;;16.01;65.94;95217.84;5052659;28;20206;-66
2023/06/07 03:29:10;;;;;;;9.48;3.45;;;;;;;16.01;65.85;95212.72;5051580;28;20260;-66
2023/06/07 03:31:37;;;;;;;2.72;2.50;;;;;;;16.02;66.10;95209.25;5052848;28;20203;-69
2023/06/07 03:34:03;;;;;;;5.82;2.90;;;;;;;16.05;66.36;95211.66;5052221;28;20751;-66
2023/06/07 03:36:30;;;;;;;5.85;3.45;;;;;;;16.12;66.00;95212.97;5051989;28;20206;-66
2023/06/07 03:38:59;;;;;;;3.00;2.80;;;;;;;16.18;66.06;95224.63;5051933;28;20582;-67
2023/06/07 03:41:27;;;;;;;3.58;2.70;;;;;;;16.14;66.08;95218.84;5052428;28;20754;-70
2023/06/07 03:43:53;;;;;;;2.90;2.65;;;;;;;16.16;65.98;95219.59;5052663;28;20195;-67
2023/06/07 03:46:20;;;;;;;2.50;2.30;;;;;;;16.13;66.28;95216.34;5052241;28;20234;-66
2023/06/07 03:48:47;;;;;;;3.35;2.92;;;;;;;16.06;66.53;95215.03;5051583;28;20195;-68
2023/06/07 03:51:13;;;;;;;8.10;3.70;;;;;;;16.05;66.89;95218.50;5052232;28;20297;-69
2023/06/07 03:53:40;;;;;;;5.63;2.80;;;;;;;16.03;66.83;95216.03;5051882;28;20203;-67
2023/06/07 03:56:07;;;;;;;4.03;3.15;;;;;;;16.08;66.63;95224.31;5051780;28;20750;-68
2023/06/07 03:58:35;;;;;;;2.72;2.50;;;;;;;16.06;67.19;95215.03;5052097;28;20226;-69
2023/06/07 04:01:02;;;;;;;3.70;2.85;;;;;;;16.14;66.99;95213.72;5051801;28;20570;-68
2023/06/07 04:03:30;;;;;;;3.58;2.53;;;;;;;16.18;66.90;95215.22;5051557;28;20665;-68
2023/06/07 04:05:57;;;;;;;4.63;2.65;;;;;;;16.24;66.77;95212.31;5052116;28;20206;-69
2023/06/07 04:08:24;;;;;;;3.28;3.08;;;;;;;16.32;66.60;95220.44;5052638;28;20329;-69
2023/06/07 04:10:50;;;;;;;6.05;3.38;;;;;;;16.54;65.85;95211.59;5052072;28;20210;-66
2023/06/07 04:13:17;;;;;;;4.40;2.78;;;;;;;16.84;65.35;95220.19;5044309;28;20256;-66
2023/06/07 04:15:45;;;;;;;2.83;2.63;;;;;;;17.11;64.17;95193.88;5051449;28;20723;-68
2023/06/07 04:18:12;;;;;;;3.80;3.22;;;;;;;17.52;63.10;95202.59;5052702;28;20250;-68
2023/06/07 04:20:40;;;;;;;4.82;3.25;;;;;;;17.93;61.67;95209.63;5051850;28;20257;-67
2023/06/07 04:23:07;;;;;;;3.78;3.30;;;;;;;18.31;60.16;95202.97;5051642;28;20626;-69
2023/06/07 04:25:33;;;;;;;3.63;3.33;;;;;;;18.57;59.43;95210.81;5051550;28;20670;-67
2023/06/07 04:28:00;;;;;;;9.20;3.33;;;;;;;18.54;58.95;95214.44;5051708;28;20202;-68
2023/06/07 04:30:34;;;;;;;3.35;3.10;;;;;;;18.20;59.94;95207.16;5051528;28;20227;-69
2023/06/07 04:33:04;;;;;;;3.35;3.05;;;;;;;18.07;61.11;95212.19;5051735;28;20267;-70
2023/06/07 04:35:33;;;;;;;4.00;3.35;;;;;;;17.99;61.58;95211.84;5051264;28;20199;-68
2023/06/07 04:38:01;;;;;;;3.22;2.97;;;;;;;17.78;61.52;95213.97;5050307;28;20253;-70
2023/06/07 04:40:28;;;;;;;5.82;3.20;;;;;;;17.75;61.39;95200.47;5051472;28;20226;-68
2023/06/07 04:42:57;;;;;;;3.92;3.03;;;;;;;17.60;62.06;95194.44;5051638;28;20230;-69
2023/06/07 04:45:31;;;;;;;4.38;3.00;;;;;;;17.75;62.34;95203.03;5051405;28;20274;-67
2023/06/07 04:47:58;;;;;;;3.40;3.13;;;;;;;17.81;61.31;95207.81;5051267;28;20222;-68
2023/06/07 04:50:28;;;;;;;3.72;3.42;;;;;;;17.89;61.62;95198.69;5050372;28;20699;-67
2023/06/07 04:53:00;;;;;;;3.40;3.10;;;;;;;18.12;60.95;95207.59;5051349;28;20198;-66
2023/06/07 04:55:29;;;;;;;3.22;2.92;;;;;;;18.33;60.68;95203.72;5039082;28;20264;-67
2023/06/07 04:57:56;;;;;;;5.93;2.92;;;;;;;18.50;59.92;95204.44;5050250;28;20807;-67
2023/06/07 05:00:24;;;;;;;7.72;3.00;;;;;;;18.74;59.73;95205.50;5051611;28;20275;-66
2023/06/07 05:02:52;;;;;;;3.50;3.20;;;;;;;18.94;58.81;95207.63;5053130;28;20234;-66
2023/06/07 05:05:19;;;;;;;5.05;2.47;;;;;;;19.24;58.54;95204.81;5054063;28;20290;-68
2023/06/07 05:07:49;;;;;;;3.38;3.17;;;;;;;19.37;57.67;95210.81;5051209;28;20226;-68
2023/06/07 05:10:16;;;;;;;5.03;3.30;;;;;;;19.19;57.86;95208.63;5049353;28;20214;-68
2023/06/07 05:12:42;;;;;;;5.40;3.05;;;;;;;18.94;58.56;95212.78;5049060;28;20237;-68
2023/06/07 05:15:10;;;;;;;3.42;3.00;;;;;;;18.94;59.30;95217.09;5049335;28;20194;-69
2023/06/07 05:17:38;;;;;;;4.88;2.60;;;;;;;19.11;58.59;95216.00;5049877;28;20254;-67
2023/06/07 05:20:10;;;;;;;7.13;3.42;;;;;;;19.32;58.42;95217.19;5050492;28;20640;-67
2023/06/07 05:22:38;;;;;;;5.07;2.80;;;;;;;19.65;57.93;95214.19;5053205;28;20203;-66
2023/06/07 05:25:08;;;;;;;6.50;3.13;;;;;;;19.86;56.85;95217.06;5055009;28;20285;-68
2023/06/07 05:27:35;;;;;;;3.92;2.90;;;;;;;19.92;57.10;95206.34;5053830;28;20731;-68
2023/06/07 05:30:02;;;;;;;6.18;2.90;;;;;;;20.05;55.97;95218.28;5051373;28;20203;-66
2023/06/07 05:32:29;;;;;;;3.10;2.50;;;;;;;19.92;56.01;95206.34;5050432;28;20198;-67
2023/06/07 05:34:57;;;;;;;3.20;3.00;;;;;;;20.18;55.33;95217.47;5050035;28;20199;-68
2023/06/07 05:37:24;;;;;;;6.07;2.85;;;;;;;20.40;55.25;95211.66;5049756;28;20783;-68
2023/06/07 05:39:51;;;;;;;4.82;2.72;;;;;;;20.71;55.07;95218.91;5050083;28;20207;-69
2023/06/07 05:42:19;;;;;;;6.88;2.97;;;;;;;20.78;53.64;95217.56;5049933;28;20235;-67
2023/06/07 05:44:46;;;;;;;4.90;2.95;;;;;;;20.76;54.14;95216.00;5049875;28;20231;-68
2023/06/07 05:47:13;;;;;;;4.88;2.85;;;;;;;20.81;54.06;95216.47;5049570;28;20578;-68
2023/06/07 05:49:39;;;;;;;7.50;4.30;;;;;;;21.38;53.24;95209.72;5050356;28;20198;-67
2023/06/07 05:52:07;;;;;;;5.45;3.25;;;;;;;21.92;51.04;95208.28;5049578;28;20280;-68
2023/06/07 05:54:34;;;;;;;8.73;3.30;;;;;;;21.85;51.03;95200.16;5049871;28;20758;-67
2023/06/07 05:57:01;;;;;;;3.72;3.40;;;;;;;21.85;51.23;95201.94;5049805;28;20597;-68
2023/06/07 05:59:29;;;;;;;4.75;3.13;;;;;;;21.94;50.93;95209.00;5049473;28;20309;-69
2023/06/07 06:01:55;;;;;;;3.75;3.05;;;;;;;22.20;50.57;95200.09;5045909;28;20203;-67
2023/06/07 06:04:22;;;;;;;5.47;3.40;;;;;;;22.77;50.00;95199.06;5049504;28;20231;-69
2023/06/07 06:06:49;;;;;;;6.53;2.70;;;;;;;23.19;48.21;95199.22;5043094;28;20203;-68
2023/06/07 06:09:16;;;;;;;3.60;3.30;;;;;;;23.40;47.87;95200.03;5049428;28;20210;-69
2023/06/07 06:11:43;;;;;;;3.30;3.00;;;;;;;23.33;47.34;95191.09;5049832;28;20237;-68
2023/06/07 06:14:10;;;;;;;5.95;3.33;;;;;;;23.20;48.46;95190.47;5049283;28;20731;-67
2023/06/07 06:16:38;;;;;;;11.48;3.45;;;;;;;23.15;48.39;95205.56;5049222;28;20202;-67
2023/06/07 06:19:04;;;;;;;3.53;3.03;;;;;;;23.16;49.00;95204.63;5049909;28;20653;-69
2023/06/07 06:21:31;;;;;;;9.02;2.97;;;;;;;23.31;48.21;95204.19;5049326;28;20235;-68
2023/06/07 06:23:58;;;;;;;4.45;3.05;;;;;;;23.22;47.95;95204.97;5049465;28;20631;-67
2023/06/07 06:26:27;;;;;;;5.20;2.45;;;;;;;23.64;47.46;95211.03;5042826;28;20687;-67
2023/06/07 06:28:53;;;;;;;3.15;2.85;;;;;;;24.64;45.49;95201.66;5049024;28;20603;-67
2023/06/07 06:31:20;;;;;;;7.72;2.95;;;;;;;25.35;44.47;95196.25;5049803;28;20257;-69
2023/06/07 06:33:48;;;;;;;9.25;2.70;;;;;;;25.36;43.79;95200.50;5049751;28;20230;-67
2023/06/07 06:36:15;;;;;;;7.75;3.33;;;;;;;25.43;43.90;95199.00;5048441;28;20238;-68
2023/06/07 06:38:41;;;;;;;5.15;3.10;;;;;;;25.97;43.23;95193.19;5048819;28;20230;-69
2023/06/07 06:41:09;;;;;;;5.00;2.38;;;;;;;25.67;41.97;95196.00;5049276;28;20676;-67
2023/06/07 06:43:36;;;;;;;3.53;3.22;;;;;;;25.15;43.96;95205.03;5047475;28;20205;-65
2023/06/07 06:46:03;;;;;;;3.28;2.78;;;;;;;24.91;44.65;95201.03;5005546;28;20350;-70
2023/06/07 06:48:30;;;;;;;4.30;3.00;;;;;;;25.15;44.83;95205.03;5002940;28;20203;-70
2023/06/07 06:50:58;;;;;;;6.95;2.75;;;;;;;25.36;44.36;95198.72;5008148;28;20215;-68
2023/06/07 06:53:25;;;;;;;2.88;2.58;;;;;;;25.31;44.19;95192.28;5006403;28;20760;-66
2023/06/07 06:55:52;;;;;;;4.57;2.88;;;;;;;25.56;43.62;95198.72;5010366;28;20294;-66
2023/06/07 06:58:19;;;;;;;6.05;3.85;;;;;;;25.95;42.62;95199.50;5011152;28;20238;-67
2023/06/07 07:00:46;;;;;;;5.65;2.97;;;;;;;25.50;43.13;95201.84;5010969;28;20206;-69
2023/06/07 07:03:12;;;;;;;7.53;3.03;;;;;;;25.06;44.79;95196.25;5009914;28;20256;-61
2023/06/07 07:05:39;;;;;;;8.77;3.50;;;;;;;25.32;44.50;95196.53;5011269;28;20978;-64
2023/06/07 07:08:07;;;;;;;4.53;3.20;;;;;;;26.02;42.56;95190.94;5010015;28;20290;-61
2023/06/07 07:10:34;;;;;;;2.95;2.75;;;;;;;26.48;41.88;95185.88;5011367;28;20207;-65
2023/06/07 07:13:01;;;;;;;4.18;2.70;;;;;;;28.17;39.39;95190.97;5011061;28;20211;-64
2023/06/07 07:15:28;;;;;;;4.80;3.05;;;;;;;28.71;37.60;95181.06;5011128;28;20203;-58
2023/06/07 07:17:54;;;;;;;3.00;2.70;;;;;;;28.36;37.34;95162.00;5009534;28;20203;-62
2023/06/07 07:20:22;;;;;;;3.80;3.00;;;;;;;28.46;37.63;95187.19;5010060;28;20931;-62
2023/06/07 07:22:48;;;;;;;6.30;2.70;;;;;;;28.28;38.46;95187.28;5010949;28;20212;-60
2023/06/07 07:25:17;;;;;;;8.70;3.20;;;;;;;28.05;38.42;95189.56;5010251;28;20337;-74
2023/06/07 07:27:44;;;;;;;2.63;2.42;;;;;;;29.03;38.05;95186.41;5005802;28;20211;-70
2023/06/07 07:30:12;;;;;;;3.65;2.90;;;;;;;31.57;32.60;95175.81;5010419;28;20498;-80
2023/06/07 07:32:38;;;;;;;5.22;3.20;;;;;;;33.58;30.35;95172.75;5012319;28;20214;-70
2023/06/07 07:35:06;;;;;;;2.97;2.78;;;;;;;34.96;27.56;95178.06;5010550;28;20269;-66
2023/06/07 07:37:32;;;;;;;4.13;2.83;;;;;;;33.98;28.39;95176.53;5009712;28;20254;-71
2023/06/07 07:39:59;;;;;;;3.45;2.85;;;;;;;33.92;28.51;95174.66;5011208;28;20296;-70
2023/06/07 07:42:28;;;;;;;10.95;7.05;;;;;;;34.04;28.79;95169.66;5009904;28;20257;-71
2023/06/07 07:44:55;;;;;;;4.30;3.47;;;;;;;34.10;28.34;95171.53;5010421;28;20638;-72
2023/06/07 07:47:21;;;;;;;9.43;4.78;;;;;;;33.97;29.03;95174.06;5010194;28;20206;-79
2023/06/07 07:49:48;;;;;;;6.85;3.10;;;;;;;33.85;28.57;95173.00;5010599;28;20309;-69
2023/06/07 07:52:15;;;;;;;4.75;3.10;;;;;;;33.07;29.81;95178.13;5008467;28;20246;-77
2023/06/07 07:54:42;;;;;;;7.90;4.10;;;;;;;32.52;31.25;95180.47;5008502;28;20245;-68
2023/06/07 07:57:08;;;;;;;5.50;5.00;;;;;;;32.52;31.17;95180.47;5008170;28;21005;-67
2023/06/07 07:59:37;;;;;;;5.13;4.13;;;;;;;33.02;30.34;95177.84;5005400;28;20731;-72
2023/06/07 08:02:04;;;;;;;5.47;3.65;;;;;;;32.99;30.22;95177.41;5010254;28;20283;-70
2023/06/07 08:04:30;;;;;;;3.83;3.22;;;;;;;32.27;30.89;95180.75;5009860;28;20674;-74
2023/06/07 08:06:57;;;;;;;6.60;3.85;;;;;;;31.78;32.40;95183.03;5010130;28;20293;-75
2023/06/07 08:09:24;;;;;;;7.35;3.08;;;;;;;30.52;34.35;95179.06;5010949;28;20310;-68
2023/06/07 08:11:50;;;;;;;4.72;2.75;;;;;;;29.21;36.75;95185.44;5010269;28;20207;-68
2023/06/07 08:14:18;;;;;;;3.78;3.13;;;;;;;27.72;39.21;95185.94;5038201;28;20288;-68
2023/06/07 08:16:48;;;;;;;6.43;2.80;;;;;;;27.71;39.35;95181.72;5035425;28;20226;-70
2023/06/07 08:19:14;;;;;;;7.35;4.07;;;;;;;28.12;39.14;95185.38;5045626;28;20226;-67
2023/06/07 08:21:43;;;;;;;6.57;3.20;;;;;;;28.24;39.32;95191.97;5049563;28;20264;-69
2023/06/07 08:24:10;;;;;;;3.20;3.00;;;;;;;28.23;38.85;95189.53;5049213;28;20382;-71
2023/06/07 08:26:37;;;;;;;4.20;3.13;;;;;;;27.80;38.86;95185.16;5051259;28;20207;-67
2023/06/07 08:29:04;;;;;;;6.93;2.92;;;;;;;27.44;40.04;95183.44;5049752;28;20226;-67
2023/06/07 08:31:31;;;;;;;3.58;2.88;;;;;;;27.19;41.01;95180.78;5050682;28;20241;-68
2023/06/07 08:33:59;;;;;;;7.85;3.20;;;;;;;27.07;42.01;95185.38;5050575;28;20211;-69
2023/06/07 08:36:26;;;;;;;8.05;3.28;;;;;;;26.88;42.55;95178.50;5047779;28;20341;-69
2023/06/07 08:38:52;;;;;;;6.07;3.65;;;;;;;26.79;43.56;95179.38;5047429;28;20223;-72
2023/06/07 08:41:19;;;;;;;4.45;3.08;;;;;;;26.57;43.10;95188.41;5047817;28;20286;-70
2023/06/07 08:43:49;;;;;;;3.95;3.50;;;;;;;26.27;43.76;95186.06;5046667;28;20676;-70
2023/06/07 08:46:17;;;;;;;7.72;3.08;;;;;;;26.76;43.34;95184.88;5047587;28;20211;-68
2023/06/07 08:48:45;;;;;;;7.72;3.35;;;;;;;27.13;42.67;95178.75;5046286;28;20563;-68
2023/06/07 08:51:15;;;;;;;3.50;3.20;;;;;;;27.33;42.79;95185.44;5048087;28;20662;-72
2023/06/07 08:53:48;;;;;;;4.32;2.90;;;;;;;27.36;41.87;95177.31;5050279;28;20632;-67
2023/06/07 08:56:15;;;;;;;3.33;3.03;;;;;;;27.96;42.01;95186.13;5050822;28;20295;-69
2023/06/07 08:58:42;;;;;;;6.32;3.72;;;;;;;28.35;39.87;95175.22;5050450;28;20223;-68
2023/06/07 09:01:09;;;;;;;5.32;3.70;;;;;;;28.47;39.60;95184.41;5049729;28;20673;-69
2023/06/07 09:03:35;;;;;;;9.95;2.92;;;;;;;28.00;40.46;95184.81;5050117;28;20746;-69
2023/06/07 09:06:02;;;;;;;3.42;3.00;;;;;;;28.46;40.30;95181.97;5050806;28;20237;-68
2023/06/07 09:08:31;;;;;;;5.13;3.25;;;;;;;28.98;39.25;95180.81;5050495;28;20215;-71
2023/06/07 09:10:57;;;;;;;3.17;2.97;;;;;;;29.69;37.24;95156.69;5050162;28;20213;-70
2023/06/07 09:13:25;;;;;;;5.85;3.50;;;;;;;31.19;35.61;95155.75;5050730;28;20268;-71
2023/06/07 09:15:53;;;;;;;3.20;2.90;;;;;;;32.09;33.91;95165.31;5049684;28;20270;-69
2023/06/07 09:18:19;;;;;;;3.30;3.10;;;;;;;32.06;33.80;95170.13;5050952;28;20199;-69
2023/06/07 09:20:46;;;;;;;8.57;3.22;;;;;;;31.54;34.39;95165.66;5050068;28;20226;-69
2023/06/07 09:23:14;;;;;;;7.18;3.22;;;;;;;31.22;35.07;95165.91;5050530;28;20697;-69
2023/06/07 09:25:44;;;;;;;3.83;3.53;;;;;;;30.33;35.53;95165.38;5050004;28;20222;-71
2023/06/07 09:28:12;;;;;;;3.40;2.78;;;;;;;29.38;37.71;95163.53;5050496;28;20207;-70
2023/06/07 09:30:52;;;;;;;5.90;3.13;;;;;;;27.98;39.67;95167.66;5049914;28;20643;-69
2023/06/07 09:33:28;;;;;;;4.95;2.78;;;;;;;27.57;41.15;95161.31;5050572;28;20337;-67
2023/06/07 09:36:03;;;;;;;3.88;3.47;;;;;;;27.99;41.21;95159.66;5049923;28;20732;-67
2023/06/07 09:38:29;;;;;;;5.35;3.30;;;;;;;28.05;40.57;95161.66;5049750;28;20787;-69
2023/06/07 09:40:59;;;;;;;3.70;3.40;;;;;;;27.73;41.47;95159.66;5050433;28;20273;-69
2023/06/07 09:43:26;;;;;;;5.60;3.08;;;;;;;27.05;41.48;95156.84;5049457;28;20660;-69
2023/06/07 09:45:54;;;;;;;3.30;3.00;;;;;;;26.94;43.37;95167.47;5050056;28;20202;-65
2023/06/07 09:48:21;;;;;;;6.05;3.03;;;;;;;26.34;43.18;95159.31;5049612;28;20232;-68
2023/06/07 09:50:58;;;;;;;3.83;3.40;;;;;;;26.30;44.33;95155.38;5050173;28;20300;-68
2023/06/07 09:53:26;;;;;;;4.45;2.75;;;;;;;26.27;43.44;95158.22;5049567;28;20657;-68
2023/06/07 09:55:53;;;;;;;4.10;2.75;;;;;;;25.95;43.78;95158.66;5050038;28;20660;-66
2023/06/07 09:58:23;;;;;;;4.05;2.85;;;;;;;25.62;44.60;95156.50;5050091;28;20207;-68
2023/06/07 10:00:52;;;;;;;5.30;3.28;;;;;;;25.51;44.95;95160.09;5052002;28;20233;-67
2023/06/07 10:03:18;;;;;;;5.90;3.92;;;;;;;25.45;44.89;95158.06;5053820;28;20203;-65
2023/06/07 10:05:45;;;;;;;3.08;2.88;;;;;;;25.25;45.50;95159.03;5053435;28;20268;-70
2023/06/07 10:08:13;;;;;;;9.15;3.45;;;;;;;25.36;45.28;95156.28;5052382;28;20203;-68
2023/06/07 10:10:42;;;;;;;5.03;3.05;;;;;;;25.36;46.16;95146.69;5049512;28;20390;-68
2023/06/07 10:13:11;;;;;;;3.17;2.90;;;;;;;25.08;45.79;95153.56;5049629;28;20273;-67
2023/06/07 10:15:43;;;;;;;2.65;2.53;;;;;;;25.07;46.36;95144.13;5049344;28;20708;-68
2023/06/07 10:18:17;;;;;;;3.50;3.20;;;;;;;25.02;47.45;95141.09;5038080;28;20256;-69
2023/06/07 10:20:52;;;;;;;3.05;2.85;;;;;;;25.19;46.41;95144.00;5048782;28;20218;-67
2023/06/07 10:23:28;;;;;;;5.25;2.92;;;;;;;25.42;45.32;95142.72;5049503;28;20237;-66
2023/06/07 10:26:02;;;;;;;4.25;2.85;;;;;;;25.42;44.72;95147.94;5049485;28;20603;-69
2023/06/07 10:28:37;;;;;;;5.05;3.15;;;;;;;25.13;46.49;95134.13;5053114;28;20238;-64
2023/06/07 10:31:10;;;;;;;7.00;3.22;;;;;;;25.05;45.75;95132.22;5057330;28;20191;-66
2023/06/07 10:33:38;;;;;;;2.83;2.63;;;;;;;25.15;45.52;95134.81;5057748;28;20256;-65
2023/06/07 10:36:07;;;;;;;2.65;2.45;;;;;;;25.17;46.56;95128.53;5058039;28;20318;-65
2023/06/07 10:38:34;;;;;;;6.55;3.10;;;;;;;25.25;46.05;95136.44;5054497;28;20231;-68
2023/06/07 10:41:04;;;;;;;3.70;3.50;;;;;;;25.24;45.99;95132.19;5053184;28;20660;-67
2023/06/07 10:43:32;;;;;;;5.80;2.67;;;;;;;25.08;46.31;95131.94;5053474;28;20199;-71
2023/06/07 10:46:23;;;;;;;3.85;3.00;;;;;;;25.15;46.34;95127.84;5053333;28;20199;-71
2023/06/07 10:48:50;;;;;;;3.50;3.20;;;;;;;25.25;46.29;95127.81;5053003;28;20209;-68
2023/06/07 10:51:17;;;;;;;2.85;2.65;;;;;;;25.58;45.87;95129.94;5053015;28;20254;-68
2023/06/07 10:53:54;;;;;;;4.15;2.70;;;;;;;25.85;46.04;95124.00;5053088;28;20199;-68
2023/06/07 10:56:29;;;;;;;4.68;3.42;;;;;;;25.68;45.50;95129.97;5052678;28;20684;-66
2023/06/07 10:58:58;;;;;;;3.28;2.65;;;;;;;25.56;45.66;95121.47;5053279;28;20293;-67
2023/06/07 11:01:26;;;;;;;3.78;3.47;;;;;;;25.67;45.59;95118.72;5052834;28;20203;-68
2023/06/07 11:03:53;;;;;;;5.80;3.30;;;;;;;25.63;44.48;95116.56;5052920;28;20295;-67
2023/06/07 11:06:20;;;;;;;3.40;2.70;;;;;;;25.51;46.02;95115.03;5052345;28;20656;-65
2023/06/07 11:08:47;;;;;;;3.67;3.35;;;;;;;25.88;46.58;95120.28;5053105;28;20631;-68
2023/06/07 11:11:47;;;;;;;3.67;2.90;;;;;;;26.15;47.31;95114.28;5052985;28;20257;-69
2023/06/07 11:14:14;;;;;;;3.67;2.67;;;;;;;26.19;45.44;95116.47;5052664;28;20290;-72
2023/06/07 11:16:42;;;;;;;3.53;3.25;;;;;;;25.84;45.87;95111.13;5052444;28;20588;-69
2023/06/07 11:19:12;;;;;;;4.70;2.72;;;;;;;25.62;45.76;95107.88;5052478;28;20238;-69
2023/06/07 11:22:04;;;;;;;3.45;2.75;;;;;;;25.57;46.81;95102.28;5052990;28;20211;-68
2023/06/07 11:24:33;;;;;;;3.70;2.92;;;;;;;25.65;47.47;95110.25;5052682;28;20207;-69
2023/06/07 11:27:00;;;;;;;3.10;2.72;;;;;;;25.45;47.03;95098.22;5051845;28;20734;-70
2023/06/07 11:29:28;;;;;;;7.15;2.95;;;;;;;25.34;47.69;95109.59;5050986;28;20234;-68
2023/06/07 11:32:00;;;;;;;4.22;2.67;;;;;;;25.26;47.95;95087.84;5052254;28;20288;-67
2023/06/07 11:34:29;;;;;;;2.75;2.55;;;;;;;25.20;48.56;95093.63;5051036;28;20227;-69
2023/06/07 11:37:09;;;;;;;3.28;3.03;;;;;;;25.27;48.89;95092.91;5051890;28;20694;-66
2023/06/07 11:39:36;;;;;;;5.38;3.00;;;;;;;25.44;48.68;95096.56;5051723;28;20230;-66